Kansas, Illinois
Current Conditions -  °F | °C
As of 1:35 PM on Wednesday 17 Dec 2014 (Local Time) from KPRG Reporting Station
Overcast Overcast  
Wind Chill: -9°   Ceiling: 1200
Heat Index: -4°   Visibility: 7mi
Dew Point: -6°   Wind: 9mph
Humidity: 88%   Direction: 310°NW
Pressure: 30.27"   Gusts: NA
Location:  39.55°N, 87.94°W
Report Text: KPRG 171935Z AUTO 31008KT 7SM OVC012 M04/M05 A3027 RMK AO2 T10381055
Loading
Personal Weather Stations






























Interactive Weather Map New forecast layout! Learn more

10-Day Weather Forecast

Advertisements
Track Severe Weather on mobile